createdAt,value
2022-09-06T00:00:42.176Z,20.97
2022-09-06T00:03:09.210Z,20.95
2022-09-06T00:05:36.415Z,20.95
2022-09-06T00:08:04.152Z,20.94
2022-09-06T00:10:32.711Z,20.95
2022-09-06T00:13:05.209Z,20.93
2022-09-06T00:15:31.974Z,20.93
2022-09-06T00:18:00.679Z,20.92
2022-09-06T00:20:29.744Z,20.91
2022-09-06T00:23:01.010Z,20.89
2022-09-06T00:25:28.796Z,20.88
2022-09-06T00:28:02.971Z,20.88
2022-09-06T00:30:31.083Z,20.86
2022-09-06T00:32:57.780Z,20.81
2022-09-06T00:35:26.011Z,20.80
2022-09-06T00:37:57.594Z,20.80
2022-09-06T00:40:23.982Z,20.81
2022-09-06T00:42:50.488Z,20.82
2022-09-06T00:45:17.051Z,20.81
2022-09-06T00:47:43.746Z,20.81
2022-09-06T00:50:13.645Z,20.79
2022-09-06T00:52:41.691Z,20.80
2022-09-06T00:55:08.644Z,20.79
2022-09-06T00:57:35.659Z,20.79
2022-09-06T01:00:04.007Z,20.79
2022-09-06T01:02:30.596Z,20.78
2022-09-06T01:04:57.537Z,20.78
2022-09-06T01:08:02.848Z,20.75
2022-09-06T01:10:47.268Z,20.75
2022-09-06T01:13:34.931Z,20.72
2022-09-06T01:16:28.386Z,20.68
2022-09-06T01:19:19.905Z,20.69
2022-09-06T01:22:01.281Z,20.67
2022-09-06T01:24:54.731Z,20.67
2022-09-06T01:27:56.492Z,20.66
2022-09-06T01:30:24.624Z,20.65
2022-09-06T01:33:00.247Z,20.61
2022-09-06T01:35:38.677Z,20.60
2022-09-06T01:38:06.313Z,20.61
2022-09-06T01:40:36.291Z,20.59
2022-09-06T01:43:10.637Z,20.57
2022-09-06T01:46:00.483Z,20.56
2022-09-06T01:48:58.997Z,20.58
2022-09-06T01:51:37.453Z,20.60
2022-09-06T01:54:13.384Z,20.54
2022-09-06T01:57:07.120Z,20.53
2022-09-06T01:59:36.418Z,20.53
2022-09-06T02:02:16.532Z,20.50
2022-09-06T02:04:52.118Z,20.51
2022-09-06T02:07:25.782Z,20.51
2022-09-06T02:10:00.316Z,20.48
2022-09-06T02:12:29.849Z,20.45
2022-09-06T02:15:01.484Z,20.44
2022-09-06T02:17:34.161Z,20.44
2022-09-06T02:20:12.917Z,20.41
2022-09-06T02:22:41.704Z,20.40
2022-09-06T02:25:12.911Z,20.39
2022-09-06T02:27:39.834Z,20.38
2022-09-06T02:30:06.722Z,20.39
2022-09-06T02:32:40.156Z,20.36
2022-09-06T02:35:14.563Z,20.35
2022-09-06T02:37:41.900Z,20.35
2022-09-06T02:40:10.156Z,20.33
2022-09-06T02:42:36.818Z,20.34
2022-09-06T02:45:05.183Z,20.33
2022-09-06T02:47:31.719Z,20.34
2022-09-06T02:49:58.143Z,20.34
2022-09-06T02:52:24.590Z,20.36
2022-09-06T02:54:51.689Z,20.36
2022-09-06T02:57:18.054Z,20.31
2022-09-06T02:59:45.890Z,20.30
2022-09-06T03:02:12.658Z,20.30
2022-09-06T03:04:39.198Z,20.30
2022-09-06T03:07:05.834Z,20.30
2022-09-06T03:09:32.226Z,20.24
2022-09-06T03:11:58.708Z,20.21
2022-09-06T03:14:25.156Z,20.21
2022-09-06T03:16:51.703Z,20.20
2022-09-06T03:19:18.879Z,20.21
2022-09-06T03:21:45.305Z,20.23
2022-09-06T03:24:11.811Z,20.23
2022-09-06T03:26:38.196Z,20.23
2022-09-06T03:29:04.670Z,20.24
2022-09-06T03:31:31.320Z,20.23
2022-09-06T03:33:57.846Z,20.22
2022-09-06T03:36:24.375Z,20.18
2022-09-06T03:38:51.374Z,20.19
2022-09-06T03:41:17.855Z,20.17
2022-09-06T03:43:44.331Z,20.16
2022-09-06T03:46:10.884Z,20.16
2022-09-06T03:48:37.376Z,20.11
2022-09-06T03:51:03.768Z,20.11
2022-09-06T03:53:31.318Z,20.10
2022-09-06T03:55:58.223Z,20.04
2022-09-06T03:58:29.366Z,20.03
2022-09-06T04:01:06.739Z,20.03
2022-09-06T04:03:34.255Z,20.06
2022-09-06T04:06:00.713Z,20.05
2022-09-06T04:08:27.518Z,20.04
2022-09-06T04:10:55.147Z,20.02
2022-09-06T04:13:23.115Z,20.03
2022-09-06T04:15:50.680Z,20.02
2022-09-06T04:18:17.197Z,20.01
2022-09-06T04:20:47.528Z,20.00
2022-09-06T04:23:14.245Z,20.02
2022-09-06T04:25:40.696Z,19.99
2022-09-06T04:28:07.236Z,19.99
2022-09-06T04:30:33.619Z,19.98
2022-09-06T04:33:00.083Z,19.93
2022-09-06T04:35:26.530Z,19.91
2022-09-06T04:37:52.974Z,19.90
2022-09-06T04:40:19.542Z,19.90
2022-09-06T04:42:45.961Z,19.90
2022-09-06T04:45:12.601Z,19.89
2022-09-06T04:47:39.027Z,19.89
2022-09-06T04:50:06.364Z,19.90
2022-09-06T04:52:33.441Z,19.91
2022-09-06T04:55:00.065Z,19.89
2022-09-06T04:57:26.553Z,19.89
2022-09-06T04:59:52.989Z,19.88
2022-09-06T05:02:19.497Z,19.86
2022-09-06T05:04:45.924Z,19.85
2022-09-06T05:07:12.330Z,19.85
2022-09-06T05:09:38.787Z,19.87
2022-09-06T05:12:05.480Z,19.88
2022-09-06T05:14:31.933Z,19.88
2022-09-06T05:16:58.536Z,19.85
2022-09-06T05:19:25.012Z,19.87
2022-09-06T05:21:52.059Z,19.90
2022-09-06T05:24:18.730Z,19.88
2022-09-06T05:26:45.342Z,19.89
2022-09-06T05:29:11.954Z,19.92
2022-09-06T05:31:38.571Z,19.94
2022-09-06T05:34:05.718Z,19.96
2022-09-06T05:36:32.502Z,19.98
2022-09-06T05:38:59.254Z,19.99
2022-09-06T05:41:26.560Z,20.00
2022-09-06T05:43:53.055Z,20.02
2022-09-06T05:46:19.992Z,20.05
2022-09-06T05:48:56.319Z,20.06
2022-09-06T05:51:22.820Z,20.06
2022-09-06T05:53:49.330Z,20.07
2022-09-06T05:56:16.687Z,20.10
2022-09-06T05:58:43.648Z,20.10
2022-09-06T06:01:19.534Z,20.10
2022-09-06T06:03:54.418Z,20.12
2022-09-06T06:06:22.063Z,20.16
2022-09-06T06:08:48.816Z,20.20
2022-09-06T06:11:15.967Z,20.22
2022-09-06T06:13:43.223Z,20.23
2022-09-06T06:16:12.698Z,20.24
2022-09-06T06:18:39.374Z,20.25
2022-09-06T06:21:13.079Z,20.25
2022-09-06T06:23:40.838Z,20.23
2022-09-06T06:26:08.776Z,20.24
2022-09-06T06:28:36.363Z,20.28
2022-09-06T06:31:04.026Z,20.28
2022-09-06T06:33:31.018Z,20.29
2022-09-06T06:36:02.535Z,20.31
2022-09-06T06:38:38.614Z,20.31
2022-09-06T06:41:07.262Z,20.30
2022-09-06T06:43:37.705Z,20.33
2022-09-06T06:46:04.611Z,20.32
2022-09-06T06:48:31.500Z,20.33
2022-09-06T06:50:58.290Z,20.33
2022-09-06T06:53:24.824Z,20.33
2022-09-06T06:55:51.322Z,20.37
2022-09-06T06:58:18.885Z,20.36
2022-09-06T07:00:46.187Z,20.38
2022-09-06T07:03:13.429Z,20.38
2022-09-06T07:08:29.480Z,20.49
2022-09-06T07:10:55.959Z,20.53
2022-09-06T07:13:22.530Z,20.55
2022-09-06T07:15:49.006Z,20.56
2022-09-06T07:18:17.253Z,20.60
2022-09-06T07:26:18.941Z,20.72
2022-09-06T07:28:46.615Z,20.76
2022-09-06T07:33:59.654Z,20.79
2022-09-06T07:36:26.243Z,20.80
2022-09-06T07:38:53.551Z,20.83
2022-09-06T07:41:20.112Z,20.82
2022-09-06T07:43:47.424Z,20.82
2022-09-06T07:46:16.683Z,20.89
2022-09-06T07:48:45.189Z,20.98
2022-09-06T07:51:17.396Z,20.98
2022-09-06T07:53:47.618Z,21.01
2022-09-06T07:56:14.068Z,21.04
2022-09-06T07:58:41.107Z,21.10
2022-09-06T08:01:30.198Z,21.09
2022-09-06T08:04:04.811Z,21.18
2022-09-06T08:09:20.266Z,21.30
2022-09-06T08:11:46.936Z,21.35
2022-09-06T08:14:13.623Z,21.43
2022-09-06T08:16:40.258Z,21.48
2022-09-06T08:19:08.713Z,21.48
2022-09-06T08:21:35.425Z,21.49
2022-09-06T08:24:05.191Z,21.57
2022-09-06T08:26:33.454Z,21.64
2022-09-06T08:29:02.528Z,21.69
2022-09-06T08:31:31.131Z,21.74
2022-09-06T08:33:59.097Z,21.76
2022-09-06T08:36:32.274Z,21.78
2022-09-06T08:39:00.367Z,21.83
2022-09-06T08:41:54.647Z,21.86
2022-09-06T08:47:20.550Z,22.01
2022-09-06T08:49:52.849Z,22.04
2022-09-06T08:53:00.125Z,22.12
2022-09-06T08:55:47.910Z,22.15
2022-09-06T08:58:34.665Z,22.14
2022-09-06T09:01:06.376Z,22.16
2022-09-06T09:03:38.087Z,22.11
2022-09-06T09:06:07.237Z,22.11
2022-09-06T09:09:06.434Z,22.09
2022-09-06T09:11:36.332Z,22.07
2022-09-06T09:14:15.733Z,22.00
2022-09-06T09:16:43.007Z,22.00
2022-09-06T09:19:09.752Z,22.02
2022-09-06T09:21:38.358Z,22.02
2022-09-06T09:24:10.805Z,22.02
2022-09-06T09:26:50.328Z,21.97
2022-09-06T09:29:17.212Z,21.95
2022-09-06T09:31:53.318Z,21.91
2022-09-06T09:34:38.002Z,21.88
2022-09-06T09:40:25.896Z,21.90
2022-09-06T09:42:56.795Z,21.91
2022-09-06T09:45:30.225Z,21.91
2022-09-06T09:47:57.382Z,21.92
2022-09-06T09:50:32.588Z,21.86
2022-09-06T09:53:10.862Z,21.83
2022-09-06T09:55:37.655Z,21.87
2022-09-06T09:58:06.219Z,21.86
2022-09-06T10:00:43.351Z,21.79
2022-09-06T10:03:18.902Z,21.82
2022-09-06T10:06:02.589Z,21.83
2022-09-06T10:08:33.628Z,21.84
2022-09-06T10:11:00.892Z,21.81
2022-09-06T10:13:30.185Z,21.81
2022-09-06T10:15:59.119Z,21.83
2022-09-06T10:18:30.727Z,21.86
2022-09-06T10:21:05.675Z,21.86
2022-09-06T10:26:50.357Z,21.93
2022-09-06T10:29:43.878Z,21.98
2022-09-06T10:32:58.418Z,22.01
2022-09-06T10:35:31.679Z,22.04
2022-09-06T10:38:32.324Z,22.02
2022-09-06T10:41:06.998Z,22.03
2022-09-06T10:43:51.945Z,22.05
2022-09-06T10:46:21.586Z,22.08
2022-09-06T10:48:48.466Z,22.10
2022-09-06T10:51:33.739Z,22.07
2022-09-06T10:54:23.640Z,22.05
2022-09-06T10:56:58.920Z,22.06
2022-09-06T10:59:39.807Z,22.02
2022-09-06T11:02:22.857Z,22.06
2022-09-06T11:07:41.519Z,22.17
2022-09-06T11:10:34.493Z,22.15
2022-09-06T11:13:21.072Z,22.15
2022-09-06T11:16:08.612Z,22.17
2022-09-06T11:18:46.562Z,22.23
2022-09-06T11:21:20.944Z,22.28
2022-09-06T11:24:05.769Z,22.33
2022-09-06T11:26:40.338Z,22.35
2022-09-06T11:29:10.454Z,22.35
2022-09-06T11:32:28.924Z,22.39
2022-09-06T11:34:58.888Z,22.47
2022-09-06T11:37:34.691Z,22.48
2022-09-06T11:42:51.673Z,22.58
2022-09-06T11:45:40.383Z,22.60
2022-09-06T11:48:26.238Z,22.64
2022-09-06T11:50:58.834Z,22.65
2022-09-06T11:53:35.895Z,22.64
2022-09-06T11:56:02.242Z,22.64
2022-09-06T11:58:35.765Z,22.65
2022-09-06T12:01:16.291Z,22.67
2022-09-06T12:06:33.356Z,22.75
2022-09-06T12:09:00.007Z,22.79
2022-09-06T12:11:37.185Z,22.81
2022-09-06T12:14:28.154Z,22.85
2022-09-06T12:16:57.698Z,22.88
2022-09-06T12:19:46.273Z,22.85
2022-09-06T12:22:35.834Z,22.83
2022-09-06T12:25:24.039Z,22.75
2022-09-06T12:28:04.120Z,22.72
2022-09-06T12:30:41.921Z,22.73
2022-09-06T12:33:17.370Z,22.75
2022-09-06T12:35:59.827Z,22.73
2022-09-06T12:38:28.584Z,22.75
2022-09-06T12:40:58.929Z,22.75
2022-09-06T12:43:26.269Z,22.75
2022-09-06T12:45:53.151Z,22.75
2022-09-06T12:48:31.462Z,22.72
2022-09-06T12:51:06.486Z,22.77
2022-09-06T12:53:34.705Z,22.76
2022-09-06T12:56:14.594Z,22.71
2022-09-06T12:58:41.194Z,22.71
2022-09-06T13:01:14.826Z,22.68
2022-09-06T13:03:53.940Z,22.73
2022-09-06T13:06:26.816Z,22.75
2022-09-06T13:08:56.979Z,22.80
2022-09-06T13:11:34.359Z,22.74
2022-09-06T13:14:02.428Z,22.72
2022-09-06T13:16:38.206Z,22.67
2022-09-06T13:19:14.605Z,22.67
2022-09-06T13:21:43.700Z,22.66
2022-09-06T13:24:24.984Z,22.64
2022-09-06T13:26:52.571Z,22.65
2022-09-06T13:29:29.155Z,22.61
2022-09-06T13:31:57.323Z,22.58
2022-09-06T13:34:28.443Z,22.57
2022-09-06T13:37:01.936Z,22.55
2022-09-06T13:39:31.618Z,22.55
2022-09-06T13:42:09.629Z,22.54
2022-09-06T13:44:38.665Z,22.54
2022-09-06T13:47:05.900Z,22.52
2022-09-06T13:49:33.722Z,22.55
2022-09-06T13:52:02.364Z,22.58
2022-09-06T13:54:30.131Z,22.59
2022-09-06T13:56:57.060Z,22.59
2022-09-06T13:59:24.669Z,22.59
2022-09-06T14:02:12.030Z,22.55
2022-09-06T14:04:38.814Z,22.56
2022-09-06T14:07:05.510Z,22.53
2022-09-06T14:09:32.555Z,22.51
2022-09-06T14:11:59.300Z,22.47
2022-09-06T14:14:25.864Z,22.45
2022-09-06T14:16:53.926Z,22.41
2022-09-06T14:19:20.319Z,22.37
2022-09-06T14:21:46.712Z,22.36
2022-09-06T14:24:13.244Z,22.34
2022-09-06T14:26:39.687Z,22.32
2022-09-06T14:29:06.319Z,22.32
2022-09-06T14:31:32.914Z,22.31
2022-09-06T14:34:01.164Z,22.32
2022-09-06T14:36:29.725Z,22.34
2022-09-06T14:38:58.538Z,22.35
2022-09-06T14:41:25.964Z,22.38
2022-09-06T14:43:55.073Z,22.40
2022-09-06T14:46:22.987Z,22.43
2022-09-06T14:48:55.712Z,22.48
2022-09-06T14:51:23.208Z,22.52
2022-09-06T14:53:52.167Z,22.53
2022-09-06T14:56:19.297Z,22.54
2022-09-06T14:58:46.556Z,22.57
2022-09-06T15:01:19.203Z,22.58
2022-09-06T15:03:52.126Z,22.59
2022-09-06T15:06:21.444Z,22.60
2022-09-06T15:08:48.933Z,22.61
2022-09-06T15:11:29.093Z,22.62
2022-09-06T15:13:56.157Z,22.68
2022-09-06T15:16:22.736Z,22.75
2022-09-06T15:18:49.124Z,22.79
2022-09-06T15:21:17.579Z,22.82
2022-09-06T15:23:44.148Z,22.85
2022-09-06T15:26:13.509Z,22.86
2022-09-06T15:28:41.759Z,22.88
2022-09-06T15:31:08.601Z,22.90
2022-09-06T15:33:37.272Z,22.92
2022-09-06T15:36:08.373Z,22.93
2022-09-06T15:38:55.128Z,22.92
2022-09-06T15:41:26.992Z,22.95
2022-09-06T15:43:56.822Z,22.97
2022-09-06T15:46:35.131Z,22.98
2022-09-06T15:49:04.124Z,23.01
2022-09-06T15:51:30.871Z,23.01
2022-09-06T15:53:58.839Z,23.02
2022-09-06T15:56:26.180Z,23.02
2022-09-06T15:58:52.815Z,23.01
2022-09-06T16:01:21.591Z,23.02
2022-09-06T16:03:58.483Z,23.01
2022-09-06T16:06:27.614Z,23.07
2022-09-06T16:09:00.219Z,23.12
2022-09-06T16:11:28.662Z,23.17
2022-09-06T16:13:55.150Z,23.18
2022-09-06T16:16:22.669Z,23.16
2022-09-06T16:18:49.207Z,23.16
2022-09-06T16:21:18.476Z,23.13
2022-09-06T16:23:53.836Z,23.16
2022-09-06T16:26:22.728Z,23.16
2022-09-06T16:28:51.468Z,23.18
2022-09-06T16:31:19.429Z,23.19
2022-09-06T16:33:47.484Z,23.17
2022-09-06T16:36:14.964Z,23.16
2022-09-06T16:38:41.871Z,23.15
2022-09-06T16:41:25.182Z,23.11
2022-09-06T16:43:52.591Z,23.08
2022-09-06T16:46:24.885Z,23.02
2022-09-06T16:48:53.116Z,22.97
2022-09-06T16:51:21.771Z,22.92
2022-09-06T16:53:49.330Z,22.89
2022-09-06T16:56:18.754Z,22.85
2022-09-06T16:58:53.359Z,22.82
2022-09-06T17:01:20.911Z,22.80
2022-09-06T17:03:47.660Z,22.77
2022-09-06T17:06:14.513Z,22.71
2022-09-06T17:08:40.902Z,22.66
2022-09-06T17:11:14.760Z,22.63
2022-09-06T17:13:42.720Z,22.56
2022-09-06T17:16:27.947Z,22.54
2022-09-06T17:18:54.766Z,22.50
2022-09-06T17:21:23.543Z,22.46
2022-09-06T17:23:51.033Z,22.45
2022-09-06T17:26:20.565Z,22.45
2022-09-06T17:28:50.420Z,22.43
2022-09-06T17:31:22.191Z,22.40
2022-09-06T17:33:50.539Z,22.37
2022-09-06T17:36:21.029Z,22.33
2022-09-06T17:38:52.868Z,22.30
2022-09-06T17:41:28.173Z,22.27
2022-09-06T17:43:55.449Z,22.23
2022-09-06T17:46:28.417Z,22.18
2022-09-06T17:48:55.381Z,22.17
2022-09-06T17:51:21.783Z,22.10
2022-09-06T17:53:48.336Z,22.06
2022-09-06T17:56:16.691Z,22.05
2022-09-06T17:58:43.858Z,22.02
2022-09-06T18:01:13.123Z,21.99
2022-09-06T18:03:41.317Z,21.94
2022-09-06T18:06:11.412Z,21.86
2022-09-06T18:08:40.199Z,21.84
2022-09-06T18:11:16.633Z,21.77
2022-09-06T18:13:44.373Z,21.74
2022-09-06T18:16:12.631Z,21.70
2022-09-06T18:18:39.193Z,21.69
2022-09-06T18:21:08.687Z,21.66
2022-09-06T18:23:35.943Z,21.64
2022-09-06T18:26:06.194Z,21.62
2022-09-06T18:28:35.178Z,21.59
2022-09-06T18:31:08.253Z,21.57
2022-09-06T18:33:35.679Z,21.55
2022-09-06T18:36:03.257Z,21.53
2022-09-06T18:38:30.052Z,21.51
2022-09-06T18:40:59.412Z,21.48
2022-09-06T18:43:37.641Z,21.47
2022-09-06T18:46:09.495Z,21.45
2022-09-06T18:48:37.488Z,21.42
2022-09-06T18:51:12.893Z,21.39
2022-09-06T18:53:44.779Z,21.38
2022-09-06T18:56:13.508Z,21.35
2022-09-06T18:58:40.805Z,21.31
2022-09-06T19:01:10.012Z,21.29
2022-09-06T19:03:37.972Z,21.26
2022-09-06T19:06:12.893Z,21.24
2022-09-06T19:08:40.362Z,21.24
2022-09-06T19:11:09.873Z,21.23
2022-09-06T19:13:38.940Z,21.21
2022-09-06T19:16:06.649Z,21.15
2022-09-06T19:18:34.495Z,21.15
2022-09-06T19:21:06.553Z,21.11
2022-09-06T19:23:35.246Z,21.12
2022-09-06T19:26:07.401Z,21.13
2022-09-06T19:28:34.681Z,21.12
2022-09-06T19:31:13.349Z,21.10
2022-09-06T19:33:40.790Z,21.09
2022-09-06T19:36:11.943Z,21.06
2022-09-06T19:38:59.600Z,21.03
2022-09-06T19:41:26.577Z,21.01
2022-09-06T19:43:54.739Z,20.99
2022-09-06T19:46:24.045Z,20.99
2022-09-06T19:48:52.120Z,20.96
2022-09-06T19:51:19.572Z,20.92
2022-09-06T19:53:53.018Z,20.87
2022-09-06T19:56:22.064Z,20.84
2022-09-06T19:58:56.327Z,20.82
2022-09-06T20:01:25.126Z,20.84
2022-09-06T20:03:52.464Z,20.83
2022-09-06T20:06:19.078Z,20.81
2022-09-06T20:08:50.548Z,20.80
2022-09-06T20:11:17.163Z,20.80
2022-09-06T20:13:43.718Z,20.81
2022-09-06T20:16:10.743Z,20.78
2022-09-06T20:18:37.695Z,20.77
2022-09-06T20:21:05.132Z,20.75
2022-09-06T20:23:34.054Z,20.71
2022-09-06T20:26:06.508Z,20.70
2022-09-06T20:28:33.564Z,20.68
2022-09-06T20:31:03.210Z,20.64
2022-09-06T20:33:30.420Z,20.63
2022-09-06T20:36:04.676Z,20.60
2022-09-06T20:38:32.404Z,20.61
2022-09-06T20:41:06.823Z,20.59
2022-09-06T20:43:36.453Z,20.58
2022-09-06T20:46:15.131Z,20.53
2022-09-06T20:48:44.896Z,20.55
2022-09-06T20:51:14.849Z,20.52
2022-09-06T20:53:41.741Z,20.51
2022-09-06T20:56:13.385Z,20.48
2022-09-06T20:58:40.226Z,20.48
2022-09-06T21:01:09.372Z,20.45
2022-09-06T21:03:40.258Z,20.42
2022-09-06T21:06:08.125Z,20.42
2022-09-06T21:08:40.560Z,20.39
2022-09-06T21:11:09.703Z,20.36
2022-09-06T21:13:37.057Z,20.35
2022-09-06T21:16:04.718Z,20.33
2022-09-06T21:18:32.397Z,20.30
2022-09-06T21:21:01.028Z,20.31
2022-09-06T21:23:29.039Z,20.30
2022-09-06T21:26:00.962Z,20.30
2022-09-06T21:28:30.120Z,20.29
2022-09-06T21:31:16.722Z,20.25
2022-09-06T21:33:46.267Z,20.26
2022-09-06T21:36:15.722Z,20.26
2022-09-06T21:38:46.187Z,20.26
2022-09-06T21:41:14.933Z,20.25
2022-09-06T21:43:42.396Z,20.24
2022-09-06T21:46:11.348Z,20.25
2022-09-06T21:48:39.491Z,20.24
2022-09-06T21:51:10.708Z,20.22
2022-09-06T21:53:37.313Z,20.20
2022-09-06T21:56:04.903Z,20.20
2022-09-06T21:58:31.399Z,20.20
2022-09-06T22:01:05.015Z,20.20
2022-09-06T22:03:39.596Z,20.20
2022-09-06T22:06:18.486Z,20.18
2022-09-06T22:08:45.752Z,20.18
2022-09-06T22:11:18.563Z,20.16
2022-09-06T22:13:45.990Z,20.17
2022-09-06T22:16:14.111Z,20.16
2022-09-06T22:18:41.117Z,20.17
2022-09-06T22:21:18.617Z,20.16
2022-09-06T22:23:59.271Z,20.14
2022-09-06T22:26:27.775Z,20.15
2022-09-06T22:28:56.113Z,20.16
2022-09-06T22:31:23.770Z,20.17
2022-09-06T22:33:50.951Z,20.17
2022-09-06T22:36:17.363Z,20.17
2022-09-06T22:38:43.931Z,20.16
2022-09-06T22:41:10.876Z,20.14
2022-09-06T22:43:37.632Z,20.17
2022-09-06T22:46:09.499Z,20.15
2022-09-06T22:48:36.660Z,20.14
2022-09-06T22:51:04.197Z,20.12
2022-09-06T22:53:31.118Z,20.12
2022-09-06T22:55:57.576Z,20.14
2022-09-06T22:58:25.117Z,20.13
2022-09-06T23:00:51.697Z,20.12
2022-09-06T23:03:18.266Z,20.11
2022-09-06T23:05:44.726Z,20.10
2022-09-06T23:08:11.164Z,20.09
2022-09-06T23:10:42.413Z,20.07
2022-09-06T23:13:10.451Z,20.08
2022-09-06T23:15:40.681Z,20.07
2022-09-06T23:18:07.843Z,20.08
2022-09-06T23:20:36.947Z,20.05
2022-09-06T23:23:04.827Z,20.05
2022-09-06T23:25:31.624Z,20.04
2022-09-06T23:27:59.522Z,20.03
2022-09-06T23:30:26.147Z,20.02
2022-09-06T23:32:52.620Z,20.02
2022-09-06T23:35:19.343Z,20.03
2022-09-06T23:37:48.705Z,20.01
2022-09-06T23:40:15.315Z,20.01
2022-09-06T23:42:41.728Z,20.01
2022-09-06T23:45:08.664Z,19.99
2022-09-06T23:47:35.120Z,19.99
2022-09-06T23:50:01.739Z,20.00
2022-09-06T23:52:28.117Z,20.00
2022-09-06T23:54:54.501Z,20.02
2022-09-06T23:57:21.154Z,20.01
2022-09-06T23:59:47.559Z,20.00
